createdAt,value
2018-07-01T00:02:01.585Z,4.5
2018-07-01T00:07:01.531Z,4.5
2018-07-01T00:12:01.630Z,4.5
2018-07-01T00:17:01.568Z,4.3
2018-07-01T00:23:01.741Z,3.9
2018-07-01T00:28:01.623Z,3.7
2018-07-01T00:33:01.710Z,3.5
2018-07-01T00:48:01.570Z,3.8
2018-07-01T00:53:01.658Z,3.8
2018-07-01T00:58:01.578Z,3.8
2018-07-01T01:03:01.712Z,3.7
2018-07-01T01:08:01.590Z,3.0
2018-07-01T01:13:01.662Z,2.8
2018-07-01T01:18:01.584Z,2.5
2018-07-01T01:23:01.606Z,2.5
2018-07-01T01:33:01.576Z,2.6
2018-07-01T01:38:01.519Z,2.7
2018-07-01T01:43:01.653Z,2.7
2018-07-01T01:48:01.610Z,2.5
2018-07-01T01:53:01.593Z,2.3
2018-07-01T01:58:01.537Z,2.2
2018-07-01T02:08:01.671Z,2.0
2018-07-01T02:13:01.533Z,2.0
2018-07-01T02:23:01.645Z,2.2
2018-07-01T02:28:01.554Z,2.4
2018-07-01T02:33:01.660Z,2.4
2018-07-01T02:39:03.955Z,2.3
2018-07-01T02:44:01.551Z,2.3
2018-07-01T02:49:01.557Z,2.1
2018-07-01T02:54:01.514Z,1.9
2018-07-01T02:59:01.584Z,2.0
2018-07-01T03:04:01.524Z,2.0
2018-07-01T03:09:03.134Z,2.0
2018-07-01T03:14:01.529Z,2.0
2018-07-01T03:19:01.702Z,2.0
2018-07-01T03:29:01.672Z,2.0
2018-07-01T03:34:01.517Z,2.0
2018-07-01T03:44:01.649Z,2.0
2018-07-01T03:54:01.619Z,2.0
2018-07-01T04:04:01.768Z,2.2
2018-07-01T04:09:01.579Z,2.4
2018-07-01T04:19:01.584Z,2.4
2018-07-01T04:29:01.646Z,2.4
2018-07-01T04:34:01.582Z,2.2
2018-07-01T04:39:03.564Z,2.2
2018-07-01T04:44:01.588Z,2.4
2018-07-01T04:49:01.691Z,2.6
2018-07-01T04:54:01.520Z,2.6
2018-07-01T04:59:01.654Z,2.9
2018-07-01T05:04:01.598Z,2.9
2018-07-01T05:09:01.787Z,2.8
2018-07-01T05:14:01.687Z,2.8
2018-07-01T05:19:01.590Z,2.6
2018-07-01T05:25:01.584Z,2.3
2018-07-01T05:30:01.648Z,2.3
2018-07-01T05:35:01.744Z,2.0
2018-07-01T05:40:02.287Z,1.6
2018-07-01T05:45:01.524Z,1.6
2018-07-01T05:50:01.955Z,1.6
2018-07-01T05:55:01.598Z,1.4
2018-07-01T06:00:01.708Z,1.4
2018-07-01T06:05:01.581Z,1.3
2018-07-01T06:10:01.713Z,1.2
2018-07-01T06:15:01.707Z,1.0
2018-07-01T06:20:01.581Z,1.0
2018-07-01T06:30:01.745Z,1.0
2018-07-01T06:35:01.525Z,0.8
2018-07-01T06:45:01.767Z,0.4
2018-07-01T06:50:01.948Z,0.2
2018-07-01T06:55:01.577Z,0.0
2018-07-01T07:00:01.707Z,0.2
2018-07-01T07:10:01.595Z,0.5
2018-07-01T07:15:01.662Z,0.5
2018-07-01T07:30:01.589Z,0.3
2018-07-01T07:40:01.656Z,0.3
2018-07-01T07:45:02.137Z,0.3
2018-07-01T07:50:01.693Z,0.2
2018-07-01T07:55:01.598Z,0.2
2018-07-01T08:00:07.745Z,0.0
2018-07-01T08:05:02.609Z,0.0
2018-07-01T08:10:01.580Z,0.0
2018-07-01T08:15:01.508Z,0.0
2018-07-01T08:20:01.581Z,0.0
2018-07-01T08:25:01.717Z,0.0
2018-07-01T08:30:01.890Z,0.0
2018-07-01T08:35:01.649Z,0.0
2018-07-01T08:40:01.785Z,0.0
2018-07-01T08:45:01.523Z,0.0
2018-07-01T08:50:02.897Z,0.0
2018-07-01T08:55:02.700Z,0.0
2018-07-01T09:00:01.643Z,0.0
2018-07-01T09:05:01.842Z,0.0
2018-07-01T09:10:01.807Z,0.0
2018-07-01T09:15:01.735Z,0.0
2018-07-01T09:25:01.641Z,0.0
2018-07-01T09:30:01.709Z,0.0
2018-07-01T09:35:01.674Z,0.0
2018-07-01T09:40:01.709Z,0.0
2018-07-01T09:45:01.588Z,0.0
2018-07-01T09:50:02.507Z,0.0
2018-07-01T09:55:01.565Z,0.0
2018-07-01T10:00:03.056Z,0.0
2018-07-01T10:05:01.543Z,0.0
2018-07-01T10:10:01.591Z,0.0
2018-07-01T10:15:01.589Z,0.0
2018-07-01T10:20:01.608Z,0.0
2018-07-01T10:30:02.534Z,0.0
2018-07-01T10:35:01.578Z,0.0
2018-07-01T10:40:01.588Z,0.0
2018-07-01T10:45:01.525Z,0.0
2018-07-01T10:50:01.732Z,0.0
2018-07-01T11:00:01.908Z,0.0
2018-07-01T11:05:01.490Z,0.0
2018-07-01T11:15:01.706Z,0.0
2018-07-01T11:30:01.706Z,0.0
2018-07-01T11:35:02.259Z,0.0
2018-07-01T11:40:01.900Z,0.0
2018-07-01T11:45:01.558Z,0.0
2018-07-01T11:50:02.272Z,0.0
2018-07-01T11:55:01.521Z,0.0
2018-07-01T12:00:02.072Z,0.0
2018-07-01T12:15:01.585Z,0.0
2018-07-01T12:20:01.843Z,0.0
2018-07-01T12:25:02.147Z,0.0
2018-07-01T12:30:01.640Z,0.0
2018-07-01T12:35:01.548Z,0.0
2018-07-01T12:40:01.646Z,0.0
2018-07-01T12:45:01.595Z,0.0
2018-07-01T12:50:02.649Z,5.3
2018-07-01T12:55:01.522Z,5.3
2018-07-01T13:00:01.962Z,5.3
2018-07-01T13:05:01.581Z,5.3
2018-07-01T13:10:01.643Z,5.3
2018-07-01T20:03:01.549Z,1.2
2018-07-01T20:13:01.578Z,0.9
2018-07-01T20:18:06.521Z,0.9
2018-07-01T20:23:01.529Z,0.8
2018-07-01T20:28:01.514Z,0.9
2018-07-01T20:33:01.523Z,1.0
2018-07-01T20:38:01.519Z,0.9
2018-07-01T20:43:01.803Z,0.9
2018-07-01T20:53:01.668Z,0.9
2018-07-01T21:03:01.584Z,1.0
2018-07-01T21:08:01.532Z,1.0
2018-07-01T21:18:01.741Z,1.0
2018-07-01T21:23:01.652Z,1.0
2018-07-01T21:28:01.493Z,1.1
2018-07-01T21:34:01.722Z,1.1
2018-07-01T21:39:01.775Z,1.3
2018-07-01T21:49:01.798Z,1.5
2018-07-01T21:54:01.685Z,1.6
2018-07-01T21:59:01.803Z,1.6
2018-07-01T22:04:02.479Z,1.4
2018-07-01T22:09:01.654Z,1.4
2018-07-01T22:30:02.153Z,0.4
2018-07-01T22:35:00.953Z,0.8
2018-07-01T22:40:01.198Z,0.9
2018-07-01T22:45:01.740Z,0.9
2018-07-01T22:55:01.147Z,1.2
2018-07-01T23:00:01.036Z,1.2
2018-07-01T23:10:01.112Z,1.2
2018-07-01T23:15:01.009Z,1.2
2018-07-01T23:25:01.584Z,1.4
2018-07-01T23:30:01.171Z,1.5
2018-07-01T23:35:01.465Z,1.5
2018-07-01T23:40:01.028Z,1.4
2018-07-01T23:45:01.064Z,1.2
2018-07-01T23:50:01.215Z,1.2
2018-07-01T23:55:01.126Z,1.0
